createdAt,value
2019-05-17T00:01:28.920Z,27.65
2019-05-17T00:03:58.696Z,28.35
2019-05-17T00:06:28.747Z,25.95
2019-05-17T00:08:58.851Z,30.17
2019-05-17T00:11:28.710Z,29.95
2019-05-17T00:13:58.740Z,32.55
2019-05-17T00:16:28.911Z,27.95
2019-05-17T00:18:59.201Z,29.02
2019-05-17T00:21:28.881Z,28.45
2019-05-17T00:23:58.907Z,27.35
2019-05-17T00:26:29.016Z,30.43
2019-05-17T00:28:59.048Z,31.52
2019-05-17T00:31:29.042Z,30.75
2019-05-17T00:33:59.080Z,29.30
2019-05-17T00:36:29.287Z,28.05
2019-05-17T00:38:59.113Z,29.42
2019-05-17T00:41:29.117Z,26.95
2019-05-17T00:43:59.163Z,29.35
2019-05-17T00:46:29.196Z,27.90
2019-05-17T00:48:59.600Z,27.60
2019-05-17T00:51:29.275Z,26.30
2019-05-17T00:53:59.352Z,29.18
2019-05-17T00:56:29.647Z,30.12
2019-05-17T00:59:18.737Z,31.87
2019-05-17T01:01:48.166Z,29.77
2019-05-17T01:04:17.531Z,27.63
2019-05-17T01:06:47.084Z,26.67
2019-05-17T01:09:17.167Z,28.83
2019-05-17T01:11:47.505Z,26.13
2019-05-17T01:14:17.708Z,26.00
2019-05-17T01:16:47.642Z,28.27
2019-05-17T01:19:16.955Z,26.60
2019-05-17T01:21:47.502Z,27.90
2019-05-17T01:24:17.439Z,31.50
2019-05-17T01:26:47.076Z,27.03
2019-05-17T01:29:17.447Z,28.23
2019-05-17T01:31:47.642Z,29.50
2019-05-17T01:34:17.025Z,29.83
2019-05-17T01:36:46.610Z,26.67
2019-05-17T01:39:20.621Z,25.80
2019-05-17T01:41:47.156Z,28.37
2019-05-17T01:44:16.836Z,28.63
2019-05-17T01:46:46.690Z,29.30
2019-05-17T01:49:16.585Z,29.20
2019-05-17T01:51:46.624Z,28.07
2019-05-17T01:54:17.573Z,28.90
2019-05-17T01:56:47.287Z,28.70
2019-05-17T01:59:17.261Z,27.80
2019-05-17T02:01:48.541Z,29.23
2019-05-17T02:04:17.933Z,28.67
2019-05-17T02:06:47.301Z,29.23
2019-05-17T02:09:33.498Z,26.77
2019-05-17T02:11:47.799Z,28.20
2019-05-17T02:14:17.182Z,29.07
2019-05-17T02:17:06.939Z,29.97
2019-05-17T02:19:37.201Z,27.97
2019-05-17T02:22:07.484Z,29.20
2019-05-17T02:24:37.280Z,27.40
2019-05-17T02:27:06.733Z,27.33
2019-05-17T02:29:36.099Z,27.67
2019-05-17T02:32:05.899Z,27.13
2019-05-17T02:34:35.266Z,23.27
2019-05-17T02:37:04.734Z,22.87
2019-05-17T02:39:51.963Z,23.07
2019-05-17T02:42:05.267Z,23.60
2019-05-17T02:44:34.953Z,20.30
2019-05-17T02:47:04.357Z,21.40
2019-05-17T02:49:33.716Z,19.17
2019-05-17T02:52:03.519Z,21.33
2019-05-17T02:54:33.375Z,18.60
2019-05-17T02:57:03.348Z,19.37
2019-05-17T02:59:34.769Z,19.37
2019-05-17T03:02:04.287Z,21.07
2019-05-17T03:04:33.660Z,17.17
2019-05-17T03:07:03.953Z,18.03
2019-05-17T03:09:33.938Z,16.17
2019-05-17T03:12:03.936Z,17.70
2019-05-17T03:14:33.466Z,15.70
2019-05-17T03:17:03.514Z,14.77
2019-05-17T03:19:35.615Z,15.07
2019-05-17T03:22:07.815Z,14.77
2019-05-17T03:24:35.575Z,14.33
2019-05-17T03:27:05.232Z,14.90
2019-05-17T03:29:34.622Z,16.10
2019-05-17T03:32:08.627Z,16.63
2019-05-17T03:34:37.410Z,14.97
2019-05-17T03:37:07.736Z,15.50
2019-05-17T03:39:37.496Z,18.60
2019-05-17T03:42:06.952Z,16.27
2019-05-17T03:44:36.313Z,17.48
2019-05-17T03:47:06.336Z,17.77
2019-05-17T03:49:39.309Z,16.20
2019-05-17T03:52:07.244Z,16.60
2019-05-17T03:54:36.617Z,15.63
2019-05-17T03:57:06.247Z,15.80
2019-05-17T03:59:35.692Z,16.17
2019-05-17T04:02:05.146Z,15.60
2019-05-17T04:04:53.848Z,15.87
2019-05-17T04:07:23.847Z,15.07
2019-05-17T04:09:53.557Z,14.17
2019-05-17T04:12:23.398Z,13.03
2019-05-17T04:14:53.537Z,11.87
2019-05-17T04:17:23.209Z,13.63
2019-05-17T04:19:53.434Z,12.97
2019-05-17T04:22:23.930Z,10.73
2019-05-17T04:24:53.402Z,10.00
2019-05-17T04:27:23.135Z,8.87
2019-05-17T04:29:53.450Z,9.40
2019-05-17T04:32:23.512Z,7.80
2019-05-17T04:34:53.273Z,8.93
2019-05-17T04:37:23.116Z,8.30
2019-05-17T04:39:53.014Z,9.10
2019-05-17T04:42:22.894Z,8.70
2019-05-17T04:44:52.832Z,8.90
2019-05-17T04:47:23.125Z,8.47
2019-05-17T04:49:53.562Z,8.93
2019-05-17T04:52:23.284Z,9.03
2019-05-17T04:54:53.654Z,8.50
2019-05-17T04:57:23.472Z,7.60
2019-05-17T04:59:52.825Z,7.67
2019-05-17T05:02:23.645Z,7.50
2019-05-17T05:04:53.579Z,6.87
2019-05-17T05:07:23.029Z,8.03
2019-05-17T05:10:13.504Z,7.27
2019-05-17T05:12:44.310Z,8.60
2019-05-17T05:15:14.241Z,9.03
2019-05-17T05:17:43.621Z,8.73
2019-05-17T05:20:13.757Z,8.03
2019-05-17T05:22:43.559Z,8.27
2019-05-17T05:25:14.225Z,8.87
2019-05-17T05:27:43.660Z,8.40
2019-05-17T05:30:13.442Z,9.67
2019-05-17T05:32:45.292Z,8.13
2019-05-17T05:35:14.815Z,8.13
2019-05-17T05:37:44.173Z,8.47
2019-05-17T05:40:13.995Z,7.73
2019-05-17T05:43:02.710Z,9.95
2019-05-17T05:45:32.195Z,8.10
2019-05-17T05:48:01.928Z,7.33
2019-05-17T05:50:32.327Z,8.27
2019-05-17T05:53:02.683Z,7.60
2019-05-17T05:55:32.338Z,7.97
2019-05-17T05:58:02.977Z,8.13
2019-05-17T06:00:33.682Z,9.17
2019-05-17T06:03:04.286Z,7.42
2019-05-17T06:05:33.934Z,7.67
2019-05-17T06:08:03.873Z,7.10
2019-05-17T06:10:33.898Z,7.40
2019-05-17T06:13:03.906Z,6.92
2019-05-17T06:15:34.162Z,7.35
2019-05-17T06:18:03.940Z,6.85
2019-05-17T06:20:33.981Z,6.92
2019-05-17T06:23:04.070Z,7.28
2019-05-17T06:25:34.387Z,9.88
2019-05-17T06:28:04.100Z,7.30
2019-05-17T06:30:34.133Z,6.15
2019-05-17T06:33:04.425Z,6.25
2019-05-17T06:35:34.267Z,7.08
2019-05-17T06:38:04.268Z,5.85
2019-05-17T06:40:34.631Z,5.55
2019-05-17T06:43:04.517Z,4.70
2019-05-17T06:45:34.536Z,4.78
2019-05-17T06:48:04.537Z,4.62
2019-05-17T06:50:34.700Z,4.92
2019-05-17T06:53:04.639Z,5.05
2019-05-17T06:55:34.606Z,6.87
2019-05-17T06:58:04.712Z,4.67
2019-05-17T07:00:34.701Z,7.28
2019-05-17T07:03:04.839Z,6.33
2019-05-17T07:05:36.843Z,4.83
2019-05-17T07:08:06.467Z,4.60
2019-05-17T07:10:36.227Z,4.57
2019-05-17T07:13:05.672Z,4.83
2019-05-17T07:15:44.710Z,4.07
2019-05-17T07:18:06.163Z,4.37
2019-05-17T07:20:35.597Z,4.67
2019-05-17T07:23:05.075Z,6.10
2019-05-17T07:25:35.167Z,3.70
2019-05-17T07:28:05.111Z,5.00
2019-05-17T07:30:35.209Z,3.87
2019-05-17T07:33:05.253Z,7.67
2019-05-17T07:35:35.604Z,7.50
2019-05-17T07:38:05.347Z,5.08
2019-05-17T07:40:35.288Z,4.90
2019-05-17T07:43:10.952Z,3.92
2019-05-17T07:45:37.096Z,3.70
2019-05-17T07:48:06.472Z,3.07
2019-05-17T07:50:35.830Z,3.17
2019-05-17T07:53:05.480Z,2.62
2019-05-17T07:55:35.566Z,3.20
2019-05-17T07:58:05.533Z,2.75
2019-05-17T08:00:35.623Z,2.95
2019-05-17T08:03:05.735Z,2.80
2019-05-17T08:05:35.731Z,3.20
2019-05-17T08:08:05.695Z,5.75
2019-05-17T08:10:35.679Z,4.35
2019-05-17T08:13:05.716Z,2.95
2019-05-17T08:15:35.851Z,2.92
2019-05-17T08:18:05.855Z,2.60
2019-05-17T08:20:35.858Z,2.60
2019-05-17T08:23:05.876Z,2.70
2019-05-17T08:25:49.666Z,1.87
2019-05-17T08:28:06.993Z,2.10
2019-05-17T08:30:36.367Z,3.90
2019-05-17T08:33:07.020Z,4.97
2019-05-17T08:35:36.388Z,3.70
2019-05-17T08:38:06.086Z,5.42
2019-05-17T08:40:36.189Z,3.33
2019-05-17T08:43:06.249Z,2.10
2019-05-17T08:45:36.285Z,1.65
2019-05-17T08:48:06.248Z,2.72
2019-05-17T08:50:36.264Z,2.33
2019-05-17T08:53:06.620Z,8.93
2019-05-17T08:55:36.290Z,5.95
2019-05-17T08:58:06.332Z,4.35
2019-05-17T09:00:36.603Z,2.08
2019-05-17T09:03:06.679Z,1.60
2019-05-17T09:05:36.409Z,1.27
2019-05-17T09:08:06.602Z,2.27
2019-05-17T09:10:36.564Z,1.57
2019-05-17T09:13:06.543Z,1.60
2019-05-17T09:15:36.559Z,1.77
2019-05-17T09:18:25.924Z,2.52
2019-05-17T09:20:55.308Z,2.00
2019-05-17T09:23:24.688Z,2.00
2019-05-17T09:25:54.046Z,1.60
2019-05-17T09:28:23.423Z,1.40
2019-05-17T09:30:52.792Z,3.13
2019-05-17T09:33:22.169Z,2.40
2019-05-17T09:35:51.539Z,1.40
2019-05-17T09:38:20.990Z,1.43
2019-05-17T09:40:50.685Z,1.93
2019-05-17T09:43:20.644Z,1.50
2019-05-17T09:45:50.966Z,1.93
2019-05-17T09:48:20.607Z,1.57
2019-05-17T09:50:50.557Z,4.23
2019-05-17T09:53:20.325Z,2.50
2019-05-17T09:55:50.005Z,3.83
2019-05-17T09:58:21.677Z,1.57
2019-05-17T10:00:50.585Z,1.40
2019-05-17T10:03:23.866Z,1.50
2019-05-17T10:05:51.120Z,1.80
2019-05-17T10:08:20.490Z,1.33
2019-05-17T10:11:04.543Z,1.40
2019-05-17T10:13:20.970Z,1.67
2019-05-17T10:15:50.419Z,1.93
2019-05-17T10:18:20.118Z,1.30
2019-05-17T10:20:50.605Z,2.00
2019-05-17T10:23:20.204Z,2.53
2019-05-17T10:25:49.581Z,3.90
2019-05-17T10:28:20.559Z,2.30
2019-05-17T10:30:52.256Z,1.43
2019-05-17T10:33:21.126Z,1.60
2019-05-17T10:35:50.511Z,1.67
2019-05-17T10:38:19.897Z,2.07
2019-05-17T10:40:50.178Z,1.90
2019-05-17T10:43:20.402Z,1.70
2019-05-17T10:45:49.887Z,2.47
2019-05-17T10:48:21.165Z,1.90
2019-05-17T10:50:50.364Z,2.60
2019-05-17T10:53:20.361Z,2.07
2019-05-17T10:55:49.990Z,2.15
2019-05-17T10:58:21.317Z,2.90
2019-05-17T11:00:50.545Z,2.47
2019-05-17T11:03:20.456Z,3.73
2019-05-17T11:05:50.392Z,1.70
2019-05-17T11:08:19.983Z,1.83
2019-05-17T11:10:50.293Z,2.20
2019-05-17T11:13:19.735Z,3.03
2019-05-17T11:15:49.126Z,2.50
2019-05-17T11:18:18.503Z,2.80
2019-05-17T11:20:48.018Z,2.27
2019-05-17T11:23:17.387Z,2.30
2019-05-17T11:25:46.943Z,1.90
2019-05-17T11:28:16.347Z,1.90
2019-05-17T11:30:45.982Z,2.50
2019-05-17T11:33:15.344Z,4.30
2019-05-17T11:35:44.774Z,2.60
2019-05-17T11:38:14.137Z,2.33
2019-05-17T11:40:43.521Z,3.10
2019-05-17T11:43:12.977Z,2.00
2019-05-17T11:45:42.368Z,2.17
2019-05-17T11:48:17.532Z,2.23
2019-05-17T11:50:46.977Z,3.70
2019-05-17T11:53:16.349Z,3.07
2019-05-17T11:55:45.989Z,3.20
2019-05-17T11:58:15.369Z,2.80
2019-05-17T12:00:44.804Z,4.67
2019-05-17T12:03:14.501Z,3.60
2019-05-17T12:05:44.207Z,2.90
2019-05-17T12:08:13.914Z,3.47
2019-05-17T12:10:43.375Z,4.17
2019-05-17T12:13:13.710Z,3.87
2019-05-17T12:15:45.399Z,3.90
2019-05-17T12:18:14.504Z,3.93
2019-05-17T12:20:44.154Z,3.90
2019-05-17T12:23:13.775Z,4.05
2019-05-17T12:25:43.167Z,3.70
2019-05-17T12:28:12.540Z,4.03
2019-05-17T12:30:41.918Z,5.00
2019-05-17T12:33:11.647Z,5.67
2019-05-17T12:35:41.083Z,7.73
2019-05-17T12:38:10.462Z,5.10
2019-05-17T12:40:39.893Z,8.70
2019-05-17T12:43:09.427Z,5.40
2019-05-17T12:45:39.521Z,5.47
2019-05-17T12:48:09.540Z,7.83
2019-05-17T12:50:39.541Z,5.97
2019-05-17T12:53:09.677Z,6.25
2019-05-17T12:55:39.690Z,7.05
2019-05-17T12:58:09.723Z,7.87
2019-05-17T13:00:39.740Z,7.83
2019-05-17T13:03:09.814Z,7.60
2019-05-17T13:05:39.849Z,8.20
2019-05-17T13:08:10.240Z,10.88
2019-05-17T13:10:39.888Z,9.23
2019-05-17T13:13:10.238Z,8.15
2019-05-17T13:15:39.923Z,8.40
2019-05-17T13:18:10.057Z,8.85
2019-05-17T13:20:39.980Z,8.77
2019-05-17T13:23:10.103Z,8.38
2019-05-17T13:25:40.083Z,8.93
2019-05-17T13:28:10.109Z,9.00
2019-05-17T13:30:40.152Z,10.53
2019-05-17T13:33:10.256Z,10.93
2019-05-17T13:35:40.295Z,10.68
2019-05-17T13:38:10.201Z,10.00
2019-05-17T13:40:40.322Z,10.32
2019-05-17T13:43:10.414Z,10.03
2019-05-17T13:45:43.701Z,11.25
2019-05-17T13:48:11.822Z,11.50
2019-05-17T13:50:41.265Z,14.00
2019-05-17T13:53:10.652Z,11.63
2019-05-17T13:55:40.532Z,11.30
2019-05-17T13:58:10.519Z,11.30
2019-05-17T14:00:40.554Z,10.80
2019-05-17T14:03:10.548Z,11.60
2019-05-17T14:05:40.635Z,11.33
2019-05-17T14:08:10.825Z,11.45
2019-05-17T14:10:40.730Z,13.00
2019-05-17T14:13:10.862Z,13.72
2019-05-17T14:15:40.846Z,12.15
2019-05-17T14:18:10.842Z,12.33
2019-05-17T14:20:46.809Z,12.75
2019-05-17T14:23:16.364Z,13.13
2019-05-17T14:25:45.750Z,12.28
2019-05-17T14:28:15.578Z,14.33
2019-05-17T14:30:44.960Z,13.05
2019-05-17T14:33:14.335Z,13.40
2019-05-17T14:35:43.716Z,12.53
2019-05-17T14:38:13.100Z,13.17
2019-05-17T14:43:13.584Z,13.93
2019-05-17T14:45:42.958Z,14.07
2019-05-17T14:48:12.328Z,14.63
2019-05-17T14:50:42.000Z,12.67
2019-05-17T14:53:11.410Z,13.27
2019-05-17T14:55:41.302Z,15.72
2019-05-17T14:58:11.773Z,15.63
2019-05-17T15:00:41.440Z,15.70
2019-05-17T15:03:11.453Z,17.23
2019-05-17T15:05:41.488Z,15.30
2019-05-17T15:08:11.825Z,15.65
2019-05-17T15:10:41.824Z,14.80
2019-05-17T15:13:11.519Z,14.03
2019-05-17T15:15:41.535Z,15.38
2019-05-17T15:18:11.563Z,15.65
2019-05-17T15:20:41.664Z,18.07
2019-05-17T15:23:11.708Z,19.60
2019-05-17T15:25:41.700Z,18.77
2019-05-17T15:28:11.661Z,21.40
2019-05-17T15:30:41.887Z,19.42
2019-05-17T15:33:11.909Z,18.62
2019-05-17T15:35:41.777Z,17.00
2019-05-17T15:38:11.906Z,17.75
2019-05-17T15:40:42.243Z,17.75
2019-05-17T15:43:12.338Z,20.62
2019-05-17T15:45:42.453Z,20.15
2019-05-17T15:48:12.420Z,20.65
2019-05-17T15:50:42.156Z,22.17
2019-05-17T15:53:12.472Z,17.37
2019-05-17T15:55:42.375Z,18.55
2019-05-17T15:58:12.351Z,19.62
2019-05-17T16:00:42.331Z,21.27
2019-05-17T16:03:12.438Z,21.23
2019-05-17T16:05:42.592Z,19.65
2019-05-17T16:08:12.814Z,19.73
2019-05-17T16:10:42.827Z,20.32
2019-05-17T16:13:12.580Z,22.52
2019-05-17T16:15:42.546Z,23.73
2019-05-17T16:18:12.674Z,21.33
2019-05-17T16:20:42.551Z,20.03
2019-05-17T16:23:12.697Z,21.02
2019-05-17T16:25:42.845Z,23.02
2019-05-17T16:28:13.187Z,22.10
2019-05-17T16:30:42.731Z,21.55
2019-05-17T16:33:12.818Z,23.25
2019-05-17T16:35:42.919Z,26.85
2019-05-17T16:38:13.118Z,22.25
2019-05-17T16:40:43.076Z,20.12
2019-05-17T16:43:17.958Z,27.60
2019-05-17T16:45:44.097Z,27.47
2019-05-17T16:48:13.528Z,20.97
2019-05-17T16:50:42.957Z,26.23
2019-05-17T16:53:12.999Z,19.67
2019-05-17T16:55:42.998Z,23.40
2019-05-17T16:58:13.010Z,27.27
2019-05-17T17:00:44.626Z,23.77
2019-05-17T17:03:14.077Z,24.23
2019-05-17T17:05:43.467Z,21.87
2019-05-17T17:08:13.601Z,25.20
2019-05-17T17:10:43.275Z,23.95
2019-05-17T17:13:13.633Z,27.48
2019-05-17T17:15:43.319Z,23.50
2019-05-17T17:18:13.560Z,28.83
2019-05-17T17:20:43.636Z,23.30
2019-05-17T17:23:13.422Z,23.27
2019-05-17T17:25:43.495Z,23.57
2019-05-17T17:28:13.533Z,22.77
2019-05-17T17:30:43.510Z,26.17
2019-05-17T17:33:13.512Z,25.00
2019-05-17T17:35:43.896Z,26.82
2019-05-17T17:38:13.577Z,24.50
2019-05-17T17:40:43.700Z,24.33
2019-05-17T17:43:15.250Z,22.63
2019-05-17T17:45:44.646Z,25.15
2019-05-17T17:48:14.088Z,25.43
2019-05-17T17:50:44.708Z,24.47
2019-05-17T17:53:14.082Z,23.97
2019-05-17T17:55:44.277Z,22.07
2019-05-17T17:58:14.060Z,19.48
2019-05-17T18:00:44.272Z,19.65
2019-05-17T18:03:14.141Z,21.75
2019-05-17T18:05:44.267Z,23.57
2019-05-17T18:08:14.295Z,32.30
2019-05-17T18:10:46.543Z,26.40
2019-05-17T18:13:15.868Z,26.57
2019-05-17T18:15:46.155Z,25.87
2019-05-17T18:18:16.210Z,27.83
2019-05-17T18:20:45.669Z,28.13
2019-05-17T18:23:15.034Z,25.43
2019-05-17T18:25:44.573Z,25.45
2019-05-17T18:28:14.573Z,25.45
2019-05-17T18:30:44.968Z,22.98
2019-05-17T18:33:15.880Z,24.75
2019-05-17T18:35:45.648Z,25.87
2019-05-17T18:38:19.189Z,24.60
2019-05-17T18:40:48.585Z,25.00
2019-05-17T18:43:18.208Z,24.00
2019-05-17T18:45:47.938Z,25.67
2019-05-17T18:48:17.510Z,24.73
2019-05-17T18:50:47.237Z,23.67
2019-05-17T18:53:17.428Z,26.73
2019-05-17T18:55:47.086Z,24.97
2019-05-17T18:58:16.407Z,26.23
2019-05-17T19:00:46.438Z,24.13
2019-05-17T19:03:16.120Z,27.50
2019-05-17T19:05:45.539Z,26.03
2019-05-17T19:08:15.358Z,24.85
2019-05-17T19:10:45.590Z,25.68
2019-05-17T19:13:15.508Z,26.35
2019-05-17T19:15:46.335Z,26.65
2019-05-17T19:18:15.777Z,29.27
2019-05-17T19:20:45.647Z,28.30
2019-05-17T19:23:15.535Z,26.47
2019-05-17T19:25:45.605Z,26.48
2019-05-17T19:28:15.595Z,28.12
2019-05-17T19:30:45.750Z,26.23
2019-05-17T19:33:15.753Z,26.42
2019-05-17T19:35:46.183Z,28.16
2019-05-17T19:38:16.722Z,28.23
2019-05-17T19:40:46.661Z,28.50
2019-05-17T19:43:16.588Z,28.87
2019-05-17T19:45:46.800Z,31.25
2019-05-17T19:48:19.760Z,29.07
2019-05-17T19:50:48.491Z,32.10
2019-05-17T19:53:17.891Z,27.37
2019-05-17T19:55:47.262Z,25.67
2019-05-17T19:58:16.796Z,25.88
2019-05-17T20:00:46.972Z,28.92
2019-05-17T20:03:16.768Z,25.62
2019-05-17T20:05:46.773Z,25.80
2019-05-17T20:08:16.805Z,28.65
2019-05-17T20:10:47.097Z,30.62
2019-05-17T20:13:16.937Z,31.10
2019-05-17T20:15:46.944Z,29.37
2019-05-17T20:18:16.988Z,29.95
2019-05-17T20:20:46.971Z,30.45
2019-05-17T20:23:17.017Z,31.73
2019-05-17T20:25:47.065Z,36.47
2019-05-17T20:28:17.055Z,31.07
2019-05-17T20:30:47.445Z,33.67
2019-05-17T20:33:17.591Z,34.88
2019-05-17T20:35:47.974Z,42.35
2019-05-17T20:38:17.743Z,73.22
2019-05-17T20:40:48.074Z,127.20
2019-05-17T20:43:17.706Z,126.20
2019-05-17T20:45:47.789Z,92.67
2019-05-17T20:48:17.902Z,95.57
2019-05-17T20:50:48.133Z,117.80
2019-05-17T20:53:19.303Z,189.10
2019-05-17T20:55:48.783Z,131.83
2019-05-17T20:58:18.158Z,156.53
2019-05-17T21:00:48.086Z,137.97
2019-05-17T21:03:18.279Z,152.47
2019-05-17T21:05:48.091Z,115.03
2019-05-17T21:08:18.106Z,122.25
2019-05-17T21:10:48.128Z,121.53
2019-05-17T21:13:18.132Z,91.05
2019-05-17T21:15:48.353Z,80.22
2019-05-17T21:18:18.261Z,124.50
2019-05-17T21:20:48.495Z,119.42
2019-05-17T21:23:18.514Z,123.25
2019-05-17T21:25:48.635Z,140.77
2019-05-17T21:28:18.648Z,174.27
2019-05-17T21:30:48.678Z,99.28
2019-05-17T21:33:19.001Z,194.87
2019-05-17T21:35:48.711Z,157.20
2019-05-17T21:38:18.793Z,51.92
2019-05-17T21:40:48.833Z,73.12
2019-05-17T21:43:18.849Z,34.03
2019-05-17T21:46:02.669Z,161.90
2019-05-17T21:48:19.970Z,98.10
2019-05-17T21:50:49.340Z,39.10
2019-05-17T21:53:19.064Z,31.80
2019-05-17T21:55:49.245Z,62.20
2019-05-17T21:58:20.487Z,68.12
2019-05-17T22:01:17.188Z,186.63
2019-05-17T22:03:46.767Z,77.90
2019-05-17T22:06:16.295Z,67.77
2019-05-17T22:08:45.886Z,52.63
2019-05-17T22:11:15.264Z,75.27
2019-05-17T22:13:44.965Z,337.40
2019-05-17T22:16:19.444Z,83.10
2019-05-17T22:18:45.818Z,100.30
2019-05-17T22:21:15.211Z,42.53
2019-05-17T22:24:04.036Z,187.60
2019-05-17T22:26:33.394Z,99.70
2019-05-17T22:29:02.765Z,94.52
2019-05-17T22:31:32.154Z,314.00
2019-05-17T22:34:01.602Z,191.95
2019-05-17T22:36:30.980Z,202.97
2019-05-17T22:39:00.353Z,201.98
2019-05-17T22:41:29.737Z,118.60
2019-05-17T22:43:59.112Z,114.57
2019-05-17T22:46:35.920Z,159.13
2019-05-17T22:48:59.613Z,190.53
2019-05-17T22:51:29.000Z,116.80
2019-05-17T22:53:58.367Z,181.57
2019-05-17T22:56:27.753Z,173.53
2019-05-17T22:58:57.132Z,166.30
2019-05-17T23:01:26.595Z,156.87
2019-05-17T23:03:55.993Z,203.80
2019-05-17T23:06:25.382Z,192.27
2019-05-17T23:08:54.755Z,146.90
2019-05-17T23:11:24.710Z,165.20
2019-05-17T23:13:54.091Z,82.77
2019-05-17T23:16:23.462Z,150.17
2019-05-17T23:19:08.334Z,97.17
2019-05-17T23:21:38.252Z,136.63
2019-05-17T23:24:08.154Z,107.03
2019-05-17T23:26:37.534Z,83.13
2019-05-17T23:29:07.045Z,112.47
2019-05-17T23:31:36.671Z,110.40
2019-05-17T23:34:06.131Z,82.27
2019-05-17T23:36:35.498Z,49.43
2019-05-17T23:39:06.511Z,76.40
2019-05-17T23:41:35.865Z,63.03
2019-05-17T23:44:05.305Z,38.73
2019-05-17T23:46:34.681Z,93.77
2019-05-17T23:49:04.070Z,24.47
2019-05-17T23:51:33.437Z,65.20
2019-05-17T23:54:02.828Z,38.33
2019-05-17T23:56:32.520Z,83.75
2019-05-17T23:59:02.141Z,109.00
